Time;durP1;ratioP1;P1;durP2;ratioP2;P2;SDS_P1;SDS_P2;PMS_P1;PMS_P2;Temp;Humidity;BMP_temperature;BMP_pressure;BME280_temperature;BME280_humidity;BME280_pressure;Samples;Min_cycle;Max_cycle;Signal;HPM_P1;HPM_P2
2022/11/14 00:02:20;;;;;;;94.70;46.53;;;7.20;99.90;;;;;;5044463;28;20068;-48
2022/11/14 00:04:47;;;;;;;87.00;43.58;;;7.20;99.90;;;;;;5052452;28;20402;-48
2022/11/14 00:07:13;;;;;;;102.40;47.25;;;7.30;99.90;;;;;;5037631;28;20819;-49
2022/11/14 00:09:41;;;;;;;92.10;45.15;;;7.30;99.90;;;;;;5049279;28;20037;-47
2022/11/14 00:12:10;;;;;;;96.10;45.45;;;7.20;99.90;;;;;;5047366;28;20158;-49
2022/11/14 00:14:36;;;;;;;86.53;43.58;;;7.20;99.90;;;;;;5069449;28;20025;-51
2022/11/14 00:17:03;;;;;;;91.22;44.50;;;7.20;99.90;;;;;;5050439;28;20400;-48
2022/11/14 00:19:28;;;;;;;97.13;45.33;;;7.20;99.90;;;;;;5060833;28;20580;-46
2022/11/14 00:21:54;;;;;;;94.72;44.15;;;7.20;99.90;;;;;;5047867;28;20033;-46
2022/11/14 00:24:19;;;;;;;99.88;45.88;;;7.20;99.90;;;;;;5066623;28;20044;-46
2022/11/14 00:26:45;;;;;;;94.35;44.58;;;7.20;99.90;;;;;;5049369;28;20043;-46
2022/11/14 00:29:12;;;;;;;92.85;44.47;;;7.20;99.90;;;;;;5059465;28;20411;-46
2022/11/14 00:31:38;;;;;;;81.63;40.90;;;7.10;99.90;;;;;;5049044;28;20033;-48
2022/11/14 00:34:04;;;;;;;92.68;41.30;;;7.20;99.90;;;;;;5061288;28;20079;-48
2022/11/14 00:36:29;;;;;;;94.22;44.80;;;7.20;99.90;;;;;;5066545;28;20108;-48
2022/11/14 00:38:55;;;;;;;100.53;45.80;;;7.20;99.90;;;;;;5064438;28;20161;-47
2022/11/14 00:41:21;;;;;;;116.88;50.90;;;7.20;99.90;;;;;;5057697;28;20041;-51
2022/11/14 00:43:46;;;;;;;107.07;46.88;;;7.20;99.90;;;;;;5065797;28;20254;-49
2022/11/14 00:46:11;;;;;;;108.85;47.85;;;7.20;99.90;;;;;;5065367;28;20025;-47
2022/11/14 00:48:37;;;;;;;112.55;49.15;;;7.10;99.90;;;;;;5066424;28;20439;-50
2022/11/14 00:51:02;;;;;;;100.90;44.67;;;7.10;99.90;;;;;;5049949;28;20029;-50
2022/11/14 00:53:28;;;;;;;97.43;45.50;;;7.10;99.90;;;;;;5065899;28;20032;-47
2022/11/14 00:55:53;;;;;;;109.63;45.83;;;7.10;99.90;;;;;;5053029;28;20033;-47
2022/11/14 00:58:19;;;;;;;91.40;41.08;;;7.10;99.90;;;;;;5065721;28;20094;-52
2022/11/14 01:00:44;;;;;;;101.45;49.22;;;7.10;99.90;;;;;;5068717;28;20051;-51
2022/11/14 01:03:10;;;;;;;105.68;47.47;;;7.00;99.90;;;;;;5049084;28;20044;-49
2022/11/14 01:05:47;;;;;;;104.57;49.13;;;7.00;99.90;;;;;;5056347;28;20128;-47
2022/11/14 01:08:14;;;;;;;111.45;49.40;;;6.90;99.90;;;;;;5048615;28;20123;-48
2022/11/14 01:10:42;;;;;;;112.10;47.97;;;6.90;99.90;;;;;;5028657;28;20029;-48
2022/11/14 01:13:08;;;;;;;99.50;45.25;;;6.90;99.90;;;;;;5067897;28;20365;-44
2022/11/14 01:15:38;;;;;;;106.05;47.22;;;6.80;99.90;;;;;;5054196;28;20517;-47
2022/11/14 01:18:04;;;;;;;114.57;47.42;;;6.70;99.90;;;;;;5033165;28;20021;-53
2022/11/14 01:20:29;;;;;;;111.43;47.90;;;6.70;99.90;;;;;;5046336;28;20087;-48
2022/11/14 01:22:55;;;;;;;116.75;51.30;;;6.70;99.90;;;;;;5063470;28;20045;-51
2022/11/14 01:25:20;;;;;;;112.68;50.22;;;6.70;99.90;;;;;;5047670;28;20139;-51
2022/11/14 01:27:46;;;;;;;115.65;49.95;;;6.70;99.90;;;;;;5065716;28;20527;-50
2022/11/14 01:30:12;;;;;;;113.97;47.88;;;6.70;99.90;;;;;;5046997;28;20090;-52
2022/11/14 01:32:37;;;;;;;118.53;48.88;;;6.70;99.90;;;;;;5069033;28;20033;-46
2022/11/14 01:35:03;;;;;;;113.45;48.22;;;6.70;99.90;;;;;;5049881;28;20036;-51
2022/11/14 01:37:28;;;;;;;113.55;48.28;;;6.80;99.90;;;;;;5053188;28;20115;-53
2022/11/14 01:39:54;;;;;;;108.28;45.97;;;6.80;99.90;;;;;;5060939;28;20099;-51
2022/11/14 01:42:19;;;;;;;118.72;51.22;;;6.80;99.90;;;;;;5046574;28;20041;-51
2022/11/14 01:44:48;;;;;;;117.72;48.40;;;6.80;99.90;;;;;;5068162;28;20021;-53
2022/11/14 01:47:21;;;;;;;94.97;42.60;;;6.90;99.90;;;;;;5046948;28;20021;-53
2022/11/14 01:49:52;;;;;;;111.95;47.88;;;6.90;99.90;;;;;;5029131;28;20631;-51
2022/11/14 01:52:29;;;;;;;105.28;46.10;;;6.90;99.90;;;;;;5038947;28;20039;-52
2022/11/14 01:54:58;;;;;;;115.45;46.95;;;6.90;99.90;;;;;;5029576;28;20033;-57
2022/11/14 01:57:31;;;;;;;109.43;46.80;;;6.90;99.90;;;;;;5055326;28;20120;-53
2022/11/14 02:03:19;;;;;;;100.50;43.53;;;7.00;99.90;;;;;;5030100;28;20048;-48
2022/11/14 02:05:46;;;;;;;103.07;44.08;;;6.90;99.90;;;;;;5068722;28;20032;-49
2022/11/14 02:08:14;;;;;;;111.50;46.78;;;6.90;99.90;;;;;;5067881;28;20079;-49
2022/11/14 02:10:40;;;;;;;122.13;49.88;;;6.90;99.90;;;;;;5049928;28;20511;-47
2022/11/14 02:13:05;;;;;;;109.05;46.15;;;6.80;99.90;;;;;;5048537;28;20041;-48
2022/11/14 02:15:32;;;;;;;124.43;48.22;;;6.80;99.90;;;;;;5068901;28;20095;-46
2022/11/14 02:21:19;;;;;;;113.55;45.28;;;6.80;99.90;;;;;;5049345;28;20090;-48
2022/11/14 02:23:45;;;;;;;103.50;46.83;;;6.80;99.90;;;;;;5049983;28;20025;-50
2022/11/14 02:26:10;;;;;;;108.22;44.53;;;6.80;99.90;;;;;;5066706;28;20033;-46
2022/11/14 02:28:36;;;;;;;111.20;45.97;;;6.80;99.90;;;;;;5026809;28;20113;-46
2022/11/14 02:31:01;;;;;;;108.55;46.13;;;6.70;99.90;;;;;;5065876;28;20027;-50
2022/11/14 02:33:27;;;;;;;106.70;44.20;;;6.70;99.90;;;;;;5049782;28;20021;-50
2022/11/14 02:35:52;;;;;;;102.40;42.38;;;6.70;99.90;;;;;;5066549;28;20055;-48
2022/11/14 02:38:18;;;;;;;107.38;45.78;;;6.70;99.90;;;;;;5049879;28;20690;-52
2022/11/14 02:40:43;;;;;;;108.53;43.83;;;6.70;99.90;;;;;;5066629;28;20040;-52
2022/11/14 02:43:09;;;;;;;118.45;48.28;;;6.70;99.90;;;;;;5048600;28;20246;-52
2022/11/14 02:45:34;;;;;;;119.07;47.15;;;6.60;99.90;;;;;;5066491;28;20500;-49
2022/11/14 02:48:00;;;;;;;118.63;46.75;;;6.60;99.90;;;;;;5049774;28;20485;-48
2022/11/14 02:50:25;;;;;;;116.70;48.65;;;6.60;99.90;;;;;;5064383;28;20036;-45
2022/11/14 02:52:52;;;;;;;130.05;51.00;;;6.60;99.90;;;;;;5049248;28;20029;-43
2022/11/14 02:55:18;;;;;;;121.10;47.97;;;6.60;99.90;;;;;;5068538;28;20480;-45
2022/11/14 02:57:44;;;;;;;110.25;45.80;;;6.60;99.90;;;;;;5047539;28;20374;-43
2022/11/14 03:00:10;;;;;;;104.97;45.13;;;6.50;99.90;;;;;;5067952;28;20040;-45
2022/11/14 03:02:35;;;;;;;112.25;44.00;;;6.50;99.90;;;;;;5047270;28;20109;-44
2022/11/14 03:05:01;;;;;;;124.70;50.75;;;6.50;99.90;;;;;;5067965;28;20483;-49
2022/11/14 03:07:26;;;;;;;126.47;50.20;;;6.50;99.90;;;;;;5047439;28;20059;-45
2022/11/14 03:09:52;;;;;;;122.53;50.33;;;6.50;99.90;;;;;;5067907;28;20040;-45
2022/11/14 03:12:18;;;;;;;123.38;50.15;;;6.50;99.90;;;;;;5047553;28;20025;-42
2022/11/14 03:14:44;;;;;;;128.07;48.58;;;6.50;99.90;;;;;;5067979;28;20039;-43
2022/11/14 03:17:10;;;;;;;116.60;45.63;;;6.50;99.90;;;;;;5047295;28;20032;-44
2022/11/14 03:19:35;;;;;;;119.85;47.30;;;6.50;99.90;;;;;;5067896;28;20025;-43
2022/11/14 03:22:01;;;;;;;119.95;50.08;;;6.60;99.90;;;;;;5047133;28;20178;-42
2022/11/14 03:24:26;;;;;;;121.47;47.35;;;6.50;99.90;;;;;;5066460;28;20024;-44
2022/11/14 03:26:52;;;;;;;113.40;45.05;;;6.60;99.90;;;;;;5050314;28;20028;-45
2022/11/14 03:29:17;;;;;;;112.30;44.28;;;6.60;99.90;;;;;;5068483;28;20396;-42
2022/11/14 03:31:43;;;;;;;121.45;47.53;;;6.60;99.90;;;;;;5057906;28;20029;-43
2022/11/14 03:34:09;;;;;;;126.40;51.25;;;6.60;99.90;;;;;;5049009;28;20025;-43
2022/11/14 03:36:35;;;;;;;129.85;49.10;;;6.60;99.90;;;;;;5053648;28;20053;-46
2022/11/14 03:39:02;;;;;;;113.97;46.88;;;6.50;99.90;;;;;;5067406;28;20036;-43
2022/11/14 03:41:28;;;;;;;117.80;46.15;;;6.40;99.90;;;;;;5049665;28;20036;-43
2022/11/14 03:43:53;;;;;;;119.35;48.42;;;6.40;99.90;;;;;;5048883;28;20036;-43
2022/11/14 03:46:19;;;;;;;128.02;49.92;;;6.40;99.90;;;;;;5065531;28;20583;-43
2022/11/14 03:48:45;;;;;;;139.95;52.30;;;6.30;99.90;;;;;;5047192;28;20052;-45
2022/11/14 03:51:10;;;;;;;122.03;49.72;;;6.30;99.90;;;;;;5065440;28;20040;-43
2022/11/14 03:53:35;;;;;;;122.40;48.55;;;6.30;99.90;;;;;;5048605;28;20037;-46
2022/11/14 03:56:01;;;;;;;122.55;46.58;;;6.30;99.90;;;;;;5065452;28;20095;-43
2022/11/14 03:58:26;;;;;;;128.52;48.60;;;6.20;99.90;;;;;;5048529;28;20025;-50
2022/11/14 04:00:54;;;;;;;123.00;49.55;;;6.30;99.90;;;;;;5065226;28;20075;-48
2022/11/14 04:03:20;;;;;;;123.95;49.25;;;6.20;99.90;;;;;;5066145;28;20028;-45
2022/11/14 04:05:46;;;;;;;126.00;48.28;;;6.20;99.90;;;;;;5048839;28;20021;-48
2022/11/14 04:08:11;;;;;;;128.18;49.33;;;6.20;99.90;;;;;;5064292;28;20029;-46
2022/11/14 04:10:37;;;;;;;130.68;49.90;;;6.10;99.90;;;;;;5048808;28;20029;-50
2022/11/14 04:13:04;;;;;;;118.50;44.05;;;6.10;99.90;;;;;;5065554;28;20541;-43
2022/11/14 04:15:29;;;;;;;123.63;45.00;;;6.00;99.90;;;;;;5048321;28;20377;-45
2022/11/14 04:17:55;;;;;;;129.65;49.95;;;6.00;99.90;;;;;;5065505;28;20035;-46
2022/11/14 04:20:20;;;;;;;145.93;52.00;;;6.00;99.90;;;;;;5068327;28;20052;-43
2022/11/14 04:22:46;;;;;;;127.20;49.05;;;6.00;99.90;;;;;;5052410;28;20029;-52
2022/11/14 04:25:11;;;;;;;122.20;47.92;;;6.00;99.90;;;;;;5068166;28;20060;-43
2022/11/14 04:27:37;;;;;;;141.10;51.78;;;6.10;99.90;;;;;;5044639;28;20444;-49
2022/11/14 04:30:04;;;;;;;125.00;48.53;;;6.10;99.90;;;;;;5068108;28;20042;-46
2022/11/14 04:32:29;;;;;;;136.93;52.90;;;6.10;99.90;;;;;;5049860;28;20108;-47
2022/11/14 04:34:55;;;;;;;118.35;47.63;;;6.10;99.90;;;;;;5066067;28;20107;-44
2022/11/14 04:37:20;;;;;;;116.43;44.22;;;6.20;99.90;;;;;;5067992;28;20032;-43
2022/11/14 04:39:46;;;;;;;127.72;47.65;;;6.20;99.90;;;;;;5050728;28;20033;-43
2022/11/14 04:42:11;;;;;;;133.40;47.78;;;6.20;99.90;;;;;;5047869;28;20029;-46
2022/11/14 04:44:37;;;;;;;134.93;50.38;;;6.20;99.90;;;;;;5065203;28;20029;-44
2022/11/14 04:47:02;;;;;;;122.30;48.67;;;6.20;99.90;;;;;;5068065;28;20100;-43
2022/11/14 04:49:28;;;;;;;134.32;49.85;;;6.20;99.90;;;;;;5048328;28;20063;-43
2022/11/14 04:51:53;;;;;;;129.60;50.65;;;6.10;99.90;;;;;;5046273;28;20147;-46
2022/11/14 04:54:19;;;;;;;135.68;49.00;;;6.10;99.90;;;;;;5067152;28;20081;-45
2022/11/14 04:56:44;;;;;;;135.48;49.40;;;6.10;99.90;;;;;;5041636;28;20033;-46
2022/11/14 04:59:10;;;;;;;144.95;51.20;;;6.10;99.90;;;;;;5045638;28;20075;-45
2022/11/14 05:01:35;;;;;;;121.32;47.70;;;6.10;99.90;;;;;;5053118;28;20029;-48
2022/11/14 05:04:01;;;;;;;148.63;54.30;;;6.10;99.90;;;;;;5060578;28;20064;-43
2022/11/14 05:06:26;;;;;;;138.15;52.45;;;6.10;99.90;;;;;;5048308;28;20408;-43
2022/11/14 05:08:51;;;;;;;133.63;50.40;;;6.00;99.90;;;;;;5070056;28;20082;-43
2022/11/14 05:11:19;;;;;;;125.63;46.28;;;6.10;99.90;;;;;;5049928;28;20029;-43
2022/11/14 05:13:44;;;;;;;120.72;47.70;;;6.10;99.90;;;;;;5070461;28;20519;-42
2022/11/14 05:16:10;;;;;;;126.20;48.88;;;6.10;99.90;;;;;;5049737;28;20037;-43
2022/11/14 05:18:37;;;;;;;125.95;50.53;;;6.10;99.90;;;;;;5070377;28;20033;-43
2022/11/14 05:21:03;;;;;;;122.70;46.50;;;6.10;99.90;;;;;;5049448;28;20037;-44
2022/11/14 05:23:28;;;;;;;119.90;46.28;;;6.10;99.90;;;;;;5070310;28;20059;-47
2022/11/14 05:26:01;;;;;;;110.90;42.25;;;6.20;99.90;;;;;;5049754;28;20405;-45
2022/11/14 05:28:26;;;;;;;103.55;41.83;;;6.20;99.90;;;;;;5067620;28;20063;-44
2022/11/14 05:30:52;;;;;;;114.00;43.08;;;6.20;99.90;;;;;;5049590;28;20083;-44
2022/11/14 05:33:17;;;;;;;132.38;49.70;;;6.20;99.90;;;;;;5069957;28;20119;-48
2022/11/14 05:35:42;;;;;;;123.38;45.72;;;6.20;99.90;;;;;;5049365;28;20032;-46
2022/11/14 05:38:08;;;;;;;121.82;46.55;;;6.10;99.90;;;;;;5069864;28;20392;-43
2022/11/14 05:40:33;;;;;;;128.15;48.30;;;6.10;99.90;;;;;;5059268;28;20036;-43
2022/11/14 05:42:59;;;;;;;113.63;44.03;;;6.10;99.90;;;;;;5051215;28;20401;-43
2022/11/14 05:45:24;;;;;;;121.40;44.35;;;6.10;99.90;;;;;;5058770;28;20054;-48
2022/11/14 05:47:52;;;;;;;122.93;45.60;;;6.10;99.90;;;;;;5051051;28;20481;-43
2022/11/14 05:50:18;;;;;;;130.38;49.13;;;6.10;99.90;;;;;;5068096;28;20508;-45
2022/11/14 05:52:44;;;;;;;123.28;47.38;;;6.00;99.90;;;;;;5070530;28;20051;-45
2022/11/14 05:55:09;;;;;;;121.20;45.08;;;6.00;99.90;;;;;;5055117;28;20036;-47
2022/11/14 05:57:34;;;;;;;115.85;43.75;;;6.00;99.90;;;;;;5054245;28;20098;-43
2022/11/14 06:00:00;;;;;;;108.72;42.55;;;6.00;99.90;;;;;;5070453;28;20047;-43
2022/11/14 06:02:25;;;;;;;121.18;43.88;;;6.10;99.90;;;;;;5049950;28;20484;-43
2022/11/14 06:04:51;;;;;;;113.93;41.72;;;6.10;99.90;;;;;;5047976;28;20457;-45
2022/11/14 06:07:16;;;;;;;133.93;46.60;;;6.10;99.90;;;;;;5069345;28;20040;-45
2022/11/14 06:09:42;;;;;;;107.95;44.05;;;6.10;99.90;;;;;;5048847;28;20046;-49
2022/11/14 06:12:07;;;;;;;111.65;42.53;;;6.10;99.90;;;;;;5068736;28;20052;-48
2022/11/14 06:14:33;;;;;;;120.03;46.40;;;6.10;99.90;;;;;;5048500;28;20733;-45
2022/11/14 06:16:58;;;;;;;124.15;46.00;;;6.10;99.90;;;;;;5068880;28;20098;-43
2022/11/14 06:19:24;;;;;;;128.57;47.92;;;6.00;99.90;;;;;;5048043;28;20057;-43
2022/11/14 06:21:49;;;;;;;127.93;45.22;;;6.10;99.90;;;;;;5068706;28;20496;-46
2022/11/14 06:24:15;;;;;;;131.07;46.92;;;6.00;99.90;;;;;;5048278;28;20083;-42
2022/11/14 06:26:40;;;;;;;129.35;45.72;;;6.00;99.90;;;;;;5057186;28;20021;-42
2022/11/14 06:29:06;;;;;;;120.35;46.97;;;6.00;99.90;;;;;;5060277;28;20029;-46
2022/11/14 06:31:32;;;;;;;129.45;46.38;;;6.00;99.90;;;;;;5049790;28;20040;-51
2022/11/14 06:33:57;;;;;;;124.55;45.65;;;6.00;99.90;;;;;;5055031;28;20032;-44
2022/11/14 06:36:23;;;;;;;121.97;46.55;;;5.90;99.90;;;;;;5068276;28;20067;-45
2022/11/14 06:38:48;;;;;;;128.27;46.63;;;5.90;99.90;;;;;;5058220;28;20036;-43
2022/11/14 06:41:16;;;;;;;110.53;42.28;;;5.90;99.90;;;;;;5049557;28;20045;-43
2022/11/14 06:43:45;;;;;;;107.10;37.83;;;6.00;99.90;;;;;;5066711;28;20116;-46
2022/11/14 06:46:13;;;;;;;116.65;42.28;;;6.00;99.90;;;;;;5049062;28;20052;-43
2022/11/14 06:48:39;;;;;;;106.88;42.38;;;6.00;99.90;;;;;;5066626;28;20297;-47
2022/11/14 06:51:05;;;;;;;100.60;38.67;;;6.00;99.90;;;;;;5049423;28;20346;-49
2022/11/14 06:53:33;;;;;;;121.65;42.88;;;6.00;99.90;;;;;;5066173;28;20024;-45
2022/11/14 06:56:02;;;;;;;108.13;43.65;;;6.10;99.90;;;;;;5049067;28;20037;-50
2022/11/14 06:58:30;;;;;;;124.30;45.88;;;6.00;99.90;;;;;;5066422;28;20108;-44
2022/11/14 07:00:56;;;;;;;121.47;43.70;;;6.00;99.90;;;;;;5068638;28;20039;-48
2022/11/14 07:03:22;;;;;;;114.05;42.05;;;6.00;99.90;;;;;;5047174;28;20025;-46
2022/11/14 07:05:47;;;;;;;119.43;44.15;;;6.00;99.90;;;;;;5066989;28;20044;-48
2022/11/14 07:08:14;;;;;;;123.85;45.08;;;6.00;99.90;;;;;;5047334;28;20696;-43
2022/11/14 07:10:39;;;;;;;114.65;42.03;;;6.00;99.90;;;;;;5068207;28;20564;-43
2022/11/14 07:13:05;;;;;;;114.53;45.80;;;6.10;99.90;;;;;;5057805;28;20119;-44
2022/11/14 07:15:30;;;;;;;124.03;43.72;;;6.00;99.90;;;;;;5049110;28;20056;-42
2022/11/14 07:17:58;;;;;;;112.47;43.42;;;6.00;99.90;;;;;;5066087;28;20032;-43
2022/11/14 07:20:23;;;;;;;118.68;44.00;;;6.00;99.90;;;;;;5048763;28;20060;-44
2022/11/14 07:22:49;;;;;;;127.07;43.85;;;6.00;99.90;;;;;;5065241;28;20535;-44
2022/11/14 07:25:14;;;;;;;117.50;40.53;;;6.00;99.90;;;;;;5048885;28;20025;-47
2022/11/14 07:27:40;;;;;;;102.25;40.85;;;6.00;99.90;;;;;;5062584;28;20032;-46
2022/11/14 07:30:06;;;;;;;107.68;38.45;;;6.00;99.90;;;;;;5068630;28;20028;-47
2022/11/14 07:32:31;;;;;;;116.47;41.17;;;6.10;99.90;;;;;;5052629;28;20056;-44
2022/11/14 07:34:57;;;;;;;120.45;43.58;;;6.10;99.90;;;;;;5068551;28;20028;-48
2022/11/14 07:37:23;;;;;;;119.15;43.50;;;6.10;99.90;;;;;;5051467;28;20493;-52
2022/11/14 07:39:48;;;;;;;124.70;45.88;;;6.00;99.90;;;;;;5062056;28;20040;-48
2022/11/14 07:42:15;;;;;;;119.90;45.92;;;6.00;99.90;;;;;;5050124;28;20047;-47
2022/11/14 07:44:40;;;;;;;120.35;46.17;;;6.00;99.90;;;;;;5068261;28;20044;-50
2022/11/14 07:47:06;;;;;;;124.93;44.80;;;5.90;99.90;;;;;;5049382;28;20082;-48
2022/11/14 07:49:33;;;;;;;112.35;40.70;;;5.90;99.90;;;;;;5068475;28;20395;-49
2022/11/14 07:51:58;;;;;;;115.45;43.80;;;5.90;99.90;;;;;;5047824;28;20028;-49
2022/11/14 07:54:24;;;;;;;115.65;41.42;;;5.90;99.90;;;;;;5068361;28;20031;-46
2022/11/14 07:56:49;;;;;;;117.55;42.58;;;6.00;99.90;;;;;;5046872;28;20375;-50
2022/11/14 07:59:15;;;;;;;128.50;45.05;;;6.00;99.90;;;;;;5068250;28;20056;-49
2022/11/14 08:01:40;;;;;;;123.75;43.78;;;6.00;99.90;;;;;;5048755;28;20040;-48
2022/11/14 08:04:06;;;;;;;114.45;43.10;;;6.00;99.90;;;;;;5046324;28;20021;-47
2022/11/14 08:06:31;;;;;;;102.60;37.85;;;6.00;99.90;;;;;;5067455;28;20028;-48
2022/11/14 08:08:57;;;;;;;107.82;41.03;;;6.10;99.90;;;;;;5046730;28;20100;-50
2022/11/14 08:14:06;;;;;;;101.40;37.72;;;6.20;99.90;;;;;;5045553;28;20044;-51
2022/11/14 08:16:32;;;;;;;107.85;40.60;;;6.30;99.90;;;;;;5067280;28;20462;-49
2022/11/14 08:18:57;;;;;;;109.35;38.60;;;6.30;99.90;;;;;;5046911;28;20048;-49
2022/11/14 08:21:23;;;;;;;97.75;39.08;;;6.30;99.90;;;;;;5067078;28;20041;-47
2022/11/14 08:23:48;;;;;;;99.47;38.42;;;6.40;99.90;;;;;;5046612;28;20051;-50
2022/11/14 08:26:14;;;;;;;95.00;38.13;;;6.40;99.90;;;;;;5065356;28;20404;-49
2022/11/14 08:28:39;;;;;;;104.00;39.20;;;6.40;99.90;;;;;;5043383;28;20037;-47
2022/11/14 08:31:05;;;;;;;93.93;39.38;;;6.50;99.90;;;;;;5067122;28;20032;-49
2022/11/14 08:33:30;;;;;;;95.03;38.47;;;6.50;99.90;;;;;;5046610;28;20025;-49
2022/11/14 08:36:03;;;;;;;90.10;36.35;;;6.50;99.90;;;;;;5070889;28;20029;-49
2022/11/14 08:38:30;;;;;;;93.00;38.60;;;6.40;99.90;;;;;;5043996;28;20044;-48
2022/11/14 08:40:59;;;;;;;99.07;39.08;;;6.40;99.90;;;;;;5070716;28;20052;-53
2022/11/14 08:43:25;;;;;;;87.43;37.00;;;6.40;99.90;;;;;;5050050;28;20072;-49
2022/11/14 08:45:51;;;;;;;92.00;38.03;;;6.40;99.90;;;;;;5070642;28;20521;-48
2022/11/14 08:48:16;;;;;;;90.38;36.67;;;6.40;99.90;;;;;;5050275;28;20017;-48
2022/11/14 08:50:42;;;;;;;95.45;37.47;;;6.50;99.90;;;;;;5070718;28;20025;-49
2022/11/14 08:53:07;;;;;;;90.75;38.58;;;6.50;99.90;;;;;;5050193;28;20029;-44
2022/11/14 08:55:33;;;;;;;91.75;35.70;;;6.50;99.90;;;;;;5070810;28;21003;-45
2022/11/14 08:57:59;;;;;;;83.50;33.00;;;6.60;99.90;;;;;;5059559;28;20123;-50
2022/11/14 09:00:24;;;;;;;73.32;31.35;;;6.60;99.90;;;;;;5051752;28;20036;-44
2022/11/14 09:02:50;;;;;;;83.28;34.20;;;6.70;99.90;;;;;;5068268;28;20041;-45
2022/11/14 09:05:15;;;;;;;77.43;33.75;;;6.70;99.90;;;;;;5051834;28;20032;-47
2022/11/14 09:07:41;;;;;;;74.97;32.40;;;6.90;99.90;;;;;;5068401;28;20038;-47
2022/11/14 09:10:07;;;;;;;80.78;34.42;;;7.00;99.90;;;;;;5071010;28;20081;-46
2022/11/14 09:12:32;;;;;;;78.85;33.63;;;7.00;99.90;;;;;;5055807;28;20108;-49
2022/11/14 09:14:58;;;;;;;84.18;35.45;;;7.00;99.90;;;;;;5071007;28;20100;-44
2022/11/14 09:17:24;;;;;;;82.05;34.72;;;6.90;99.90;;;;;;5054436;28;20450;-49
2022/11/14 09:19:49;;;;;;;77.25;33.55;;;7.00;99.90;;;;;;5071120;28;20021;-51
2022/11/14 09:22:15;;;;;;;83.25;35.03;;;7.10;99.90;;;;;;5053002;28;20063;-50
2022/11/14 09:24:40;;;;;;;85.25;35.08;;;7.10;99.90;;;;;;5071015;28;20500;-46
2022/11/14 09:27:05;;;;;;;83.75;36.30;;;7.20;99.90;;;;;;5050297;28;20032;-45
2022/11/14 09:29:31;;;;;;;86.63;34.97;;;7.10;99.90;;;;;;5069617;28;20117;-44
2022/11/14 09:31:57;;;;;;;82.07;35.22;;;7.10;99.90;;;;;;5050718;28;20033;-44
2022/11/14 09:34:22;;;;;;;78.05;34.35;;;7.10;99.90;;;;;;5071021;28;20429;-45
2022/11/14 09:36:47;;;;;;;83.35;36.95;;;7.10;99.90;;;;;;5049056;28;20025;-42
2022/11/14 09:39:13;;;;;;;82.18;35.70;;;7.20;99.90;;;;;;5069014;28;20028;-48
2022/11/14 09:42:03;;;;;;;73.28;32.38;;;7.20;99.90;;;;;;5049220;28;20036;-43
2022/11/14 09:44:52;;;;;;;68.20;30.73;;;7.30;99.90;;;;;;5050560;28;20513;-47
2022/11/14 09:47:23;;;;;;;65.38;30.08;;;7.40;99.90;;;;;;5036464;28;20059;-48
2022/11/14 09:49:52;;;;;;;70.72;32.72;;;7.40;99.90;;;;;;5070432;28;20031;-47
2022/11/14 09:52:37;;;;;;;64.80;29.80;;;7.30;99.90;;;;;;5052588;28;20396;-44
2022/11/14 09:55:10;;;;;;;66.05;30.63;;;7.30;99.90;;;;;;5070474;28;20074;-47
2022/11/14 09:57:36;;;;;;;74.47;33.15;;;7.30;99.90;;;;;;5041555;28;20081;-47
2022/11/14 10:00:03;;;;;;;73.35;33.22;;;7.20;99.90;;;;;;5070267;28;20036;-44
2022/11/14 10:02:56;;;;;;;78.25;34.13;;;7.10;99.90;;;;;;5053962;28;20444;-45
2022/11/14 10:05:49;;;;;;;74.60;34.20;;;7.10;99.90;;;;;;5070235;28;20021;-44
2022/11/14 10:08:44;;;;;;;69.65;32.85;;;7.00;99.90;;;;;;5052108;28;20029;-45
2022/11/14 10:11:16;;;;;;;68.68;31.63;;;7.00;99.90;;;;;;5029793;28;20060;-47
2022/11/14 10:14:06;;;;;;;78.20;35.15;;;7.00;99.90;;;;;;5043954;28;20039;-46
2022/11/14 10:16:44;;;;;;;73.65;32.25;;;6.90;99.90;;;;;;5030065;28;20025;-44
2022/11/14 10:19:36;;;;;;;68.60;29.98;;;6.90;99.90;;;;;;5048112;28;20432;-44
2022/11/14 10:22:11;;;;;;;77.28;32.95;;;6.90;99.90;;;;;;5032289;28;20525;-43
2022/11/14 10:24:50;;;;;;;76.40;32.65;;;7.00;99.90;;;;;;5068619;28;20065;-45
2022/11/14 10:27:26;;;;;;;71.47;33.90;;;7.10;99.90;;;;;;5038744;28;20025;-44
2022/11/14 10:30:14;;;;;;;67.05;32.60;;;7.10;99.90;;;;;;5029871;28;20033;-44
2022/11/14 10:32:49;;;;;;;73.32;31.02;;;7.30;99.90;;;;;;5042226;28;20037;-44
2022/11/14 10:35:53;;;;;;;69.95;33.45;;;7.40;99.90;;;;;;5049716;28;20033;-44
2022/11/14 10:38:32;;;;;;;69.15;31.48;;;7.50;99.90;;;;;;4978582;28;20030;-45
2022/11/14 10:41:03;;;;;;;68.43;33.10;;;7.60;99.90;;;;;;4967787;28;20047;-44
2022/11/14 10:43:44;;;;;;;71.00;32.38;;;7.70;99.90;;;;;;5016267;28;20044;-44
2022/11/14 10:46:19;;;;;;;69.05;32.42;;;7.70;99.90;;;;;;5029593;28;20107;-45
2022/11/14 10:48:48;;;;;;;66.30;32.65;;;7.80;99.90;;;;;;5042701;28;20036;-43
2022/11/14 10:51:28;;;;;;;71.90;32.45;;;7.80;99.90;;;;;;5067486;28;20033;-44
2022/11/14 10:54:04;;;;;;;66.30;29.40;;;7.90;99.90;;;;;;5045165;28;20578;-48
2022/11/14 10:56:30;;;;;;;64.32;29.75;;;8.00;99.90;;;;;;5029346;28;20049;-44
2022/11/14 10:58:55;;;;;;;60.65;30.10;;;8.10;99.90;;;;;;5045777;28;20040;-44
2022/11/14 11:01:42;;;;;;;59.88;30.05;;;8.20;99.90;;;;;;5068210;28;20028;-43
2022/11/14 11:04:13;;;;;;;61.80;29.00;;;8.30;99.90;;;;;;5047544;28;20576;-47
2022/11/14 11:06:38;;;;;;;63.13;30.65;;;8.30;99.90;;;;;;5068571;28;20040;-49
2022/11/14 11:12:13;;;;;;;62.08;29.50;;;8.40;99.90;;;;;;5032614;28;22130;-49
2022/11/14 11:14:39;;;;;;;60.75;29.80;;;8.40;99.90;;;;;;5068619;28;20170;-43
2022/11/14 11:17:10;;;;;;;62.15;30.35;;;8.50;99.90;;;;;;5049886;28;20520;-44
2022/11/14 11:19:37;;;;;;;60.35;28.90;;;8.60;99.90;;;;;;5068720;28;20028;-45
2022/11/14 11:22:03;;;;;;;63.33;30.88;;;8.60;99.90;;;;;;5049230;28;20678;-44
2022/11/14 11:24:34;;;;;;;63.63;30.55;;;8.70;99.90;;;;;;5068436;28;20028;-47
2022/11/14 11:27:17;;;;;;;58.92;29.08;;;8.80;99.90;;;;;;5047448;28;20028;-52
2022/11/14 11:29:43;;;;;;;62.15;29.42;;;8.80;99.90;;;;;;5048483;28;20024;-48
2022/11/14 11:32:09;;;;;;;61.03;29.08;;;8.90;99.90;;;;;;5065932;28;20634;-49
2022/11/14 11:34:34;;;;;;;58.72;30.25;;;8.90;99.90;;;;;;5067251;28;20166;-50
2022/11/14 11:37:19;;;;;;;56.85;28.30;;;8.90;99.90;;;;;;5048739;28;20115;-44
2022/11/14 11:40:14;;;;;;;60.05;29.38;;;8.90;99.90;;;;;;5062554;28;20029;-47
2022/11/14 11:42:55;;;;;;;62.08;28.95;;;9.00;99.90;;;;;;5043269;28;20052;-46
2022/11/14 11:45:21;;;;;;;60.58;29.17;;;9.00;99.90;;;;;;5048205;28;20613;-45
2022/11/14 11:47:57;;;;;;;61.30;27.58;;;9.10;99.90;;;;;;5065885;28;20024;-44
2022/11/14 11:50:23;;;;;;;62.30;30.47;;;9.20;99.90;;;;;;5028523;28;20029;-50
2022/11/14 11:53:13;;;;;;;59.30;27.08;;;9.20;99.90;;;;;;5065180;28;20032;-44
2022/11/14 11:55:44;;;;;;;51.85;27.35;;;9.30;99.90;;;;;;5048942;28;20523;-47
2022/11/14 11:58:24;;;;;;;54.30;26.30;;;9.30;99.90;;;;;;5049266;28;20048;-45
2022/11/14 12:00:54;;;;;;;61.40;30.67;;;9.40;99.90;;;;;;5028362;28;20473;-48
2022/11/14 12:03:20;;;;;;;56.17;28.50;;;9.40;99.90;;;;;;5053134;28;20053;-50
2022/11/14 12:06:04;;;;;;;58.78;27.50;;;9.40;99.90;;;;;;5067751;28;20027;-43
2022/11/14 12:08:41;;;;;;;52.00;28.13;;;9.50;99.90;;;;;;5046690;28;20087;-47
2022/11/14 12:11:15;;;;;;;50.38;26.25;;;9.50;99.90;;;;;;5032309;28;20642;-47
2022/11/14 12:13:46;;;;;;;53.42;27.55;;;9.50;99.90;;;;;;5045895;28;20041;-48
2022/11/14 12:16:28;;;;;;;49.13;25.33;;;9.50;99.90;;;;;;5071520;28;20399;-50
2022/11/14 12:19:31;;;;;;;56.22;26.05;;;9.60;99.90;;;;;;5047719;28;20033;-45
2022/11/14 12:22:27;;;;;;;46.85;23.85;;;9.60;99.90;;;;;;5018983;28;20064;-47
2022/11/14 12:25:16;;;;;;;56.83;26.45;;;9.60;99.90;;;;;;5072121;28;20078;-43
2022/11/14 12:27:56;;;;;;;50.88;25.08;;;9.70;99.90;;;;;;5043297;28;20037;-48
2022/11/14 12:30:24;;;;;;;50.08;27.50;;;9.70;99.90;;;;;;5032129;28;20033;-44
2022/11/14 12:32:57;;;;;;;54.83;28.02;;;9.70;99.90;;;;;;5069086;28;20021;-46
2022/11/14 12:35:32;;;;;;;48.80;25.70;;;9.70;99.90;;;;;;5031620;28;20588;-49
2022/11/14 12:38:00;;;;;;;47.65;26.02;;;9.70;99.90;;;;;;5049289;28;20020;-44
2022/11/14 12:40:38;;;;;;;45.30;23.08;;;9.80;99.90;;;;;;5051725;28;20056;-48
2022/11/14 12:43:25;;;;;;;44.25;25.98;;;9.80;99.90;;;;;;5069460;28;20047;-48
2022/11/14 12:45:50;;;;;;;48.92;26.23;;;9.80;99.90;;;;;;5031632;28;20511;-43
2022/11/14 12:48:25;;;;;;;46.35;23.60;;;9.80;99.90;;;;;;5056342;28;20112;-45
2022/11/14 12:50:52;;;;;;;45.35;23.92;;;9.80;99.90;;;;;;5070850;28;20082;-42